Station Historical Data
Daily Summary for August 11, 2017 Units:  English    Metric   Both
« Previous Day
Next Day »
Daily Weekly Monthly Yearly Custom
  High: Low: Average:
Temperature: 77.2 °F 64.1 °F 70 °F
Dew Point: 65.8 °F 58.1 °F 61.9 °F
Humidity: 88% 61% 76%
Wind Speed: 8.0mph 0.0mph 1.9mph
Wind Gust: 22.0mph - -
Wind- - SSW
Pressure: 30.07 in 29.86 in -
Precipitation: 0.00 in    
Historical Graphs
 
 
Tabular Data for August 11, 2017
Time Temperature Dew Point Pressure Wind Wind Speed Wind Gust Humidity Rainfall Rate (Hourly)
00:04 71.2 °F 60.9 °F 30.07 in Calm     70% 0.00 in
00:09 71.0 °F 60.7 °F 30.06 in Calm     70% 0.00 in
00:14 70.8 °F 60.5 °F 30.06 in Calm     70% 0.00 in
00:19 70.7 °F 60.4 °F 30.07 in Calm     70% 0.00 in
00:24 70.7 °F 60.4 °F 30.07 in Calm   4.0 mph 70% 0.00 in
00:29 70.6 °F 60.3 °F 30.07 in SSE 1.0 mph 4.0 mph 70% 0.00 in
00:34 70.5 °F 60.6 °F 30.06 in Calm   3.0 mph 71% 0.00 in
00:39 70.4 °F 60.5 °F 30.06 in South 2.0 mph 4.0 mph 71% 0.00 in
00:44 70.4 °F 60.5 °F 30.06 in Calm   3.0 mph 71% 0.00 in
00:49 70.3 °F 60.4 °F 30.06 in SE 2.0 mph 3.0 mph 71% 0.00 in
00:54 70.1 °F 60.3 °F 30.06 in SSE 2.0 mph 5.0 mph 71% 0.00 in
00:59 70.0 °F 60.6 °F 30.06 in SE 1.0 mph 5.0 mph 72% 0.00 in
01:04 69.9 °F 60.5 °F 30.06 in SSE 1.0 mph 3.0 mph 72% 0.00 in
01:09 69.8 °F 60.4 °F 30.06 in Calm   3.0 mph 72% 0.00 in
01:14 69.6 °F 60.2 °F 30.06 in Calm     72% 0.00 in
01:19 69.5 °F 60.1 °F 30.06 in Calm     72% 0.00 in
01:24 69.4 °F 60.0 °F 30.06 in Calm     72% 0.00 in
01:29 69.3 °F 59.9 °F 30.06 in Calm     72% 0.00 in
01:34 69.2 °F 59.8 °F 30.06 in Calm     72% 0.00 in
01:39 69.0 °F 60.0 °F 30.06 in Calm     73% 0.00 in
01:44 68.8 °F 59.8 °F 30.06 in Calm     73% 0.00 in
01:49 68.7 °F 59.7 °F 30.05 in Calm     73% 0.00 in
01:54 68.4 °F 59.8 °F 30.05 in Calm     74% 0.00 in
01:59 68.3 °F 59.7 °F 30.05 in Calm     74% 0.00 in
02:04 68.2 °F 60.0 °F 30.05 in Calm     75% 0.00 in
02:09 68.1 °F 59.9 °F 30.05 in Calm     75% 0.00 in
02:14 67.9 °F 59.7 °F 30.04 in Calm     75% 0.00 in
02:19 67.7 °F 59.5 °F 30.04 in Calm     75% 0.00 in
02:24 67.6 °F 59.4 °F 30.04 in Calm     75% 0.00 in
02:29 67.4 °F 59.2 °F 30.04 in Calm     75% 0.00 in
02:34 67.2 °F 59.4 °F 30.04 in Calm     76% 0.00 in
02:39 67.1 °F 59.3 °F 30.04 in Calm     76% 0.00 in
02:44 66.8 °F 59.0 °F 30.04 in Calm     76% 0.00 in
02:49 66.5 °F 58.7 °F 30.04 in Calm     76% 0.00 in
02:54 65.9 °F 58.5 °F 30.04 in Calm     77% 0.00 in
02:59 65.5 °F 58.1 °F 30.04 in Calm     77% 0.00 in
03:04 65.4 °F 58.4 °F 30.05 in Calm     78% 0.00 in
03:09 65.3 °F 58.3 °F 30.04 in Calm     78% 0.00 in
03:14 65.4 °F 58.4 °F 30.04 in Calm     78% 0.00 in
03:19 65.2 °F 58.5 °F 30.04 in Calm     79% 0.00 in
03:24 65.2 °F 58.5 °F 30.04 in Calm     79% 0.00 in
03:29 65.4 °F 58.7 °F 30.04 in Calm     79% 0.00 in
03:34 65.4 °F 58.4 °F 30.04 in Calm     78% 0.00 in
03:39 65.3 °F 58.6 °F 30.04 in Calm     79% 0.00 in
03:44 65.2 °F 58.5 °F 30.04 in Calm     79% 0.00 in
03:49 65.1 °F 58.4 °F 30.04 in Calm     79% 0.00 in
03:54 65.2 °F 58.5 °F 30.04 in Calm     79% 0.00 in
03:59 65.2 °F 58.5 °F 30.04 in Calm     79% 0.00 in
04:04 65.3 °F 58.6 °F 30.04 in Calm     79% 0.00 in
04:09 65.4 °F 58.7 °F 30.03 in Calm     79% 0.00 in
04:14 65.3 °F 58.6 °F 30.03 in Calm     79% 0.00 in
04:19 65.4 °F 58.7 °F 30.03 in Calm     79% 0.00 in
04:24 65.4 °F 58.7 °F 30.03 in Calm     79% 0.00 in
04:29 65.4 °F 58.7 °F 30.03 in Calm     79% 0.00 in
04:34 65.4 °F 58.7 °F 30.02 in Calm     79% 0.00 in
04:39 65.5 °F 58.8 °F 30.02 in Calm     79% 0.00 in
04:44 65.5 °F 58.8 °F 30.03 in Calm     79% 0.00 in
04:49 65.4 °F 58.7 °F 30.02 in Calm     79% 0.00 in
04:54 65.2 °F 58.5 °F 30.02 in Calm     79% 0.00 in
04:59 65.2 °F 58.5 °F 30.03 in Calm     79% 0.00 in
05:04 65.0 °F 58.7 °F 30.03 in Calm     80% 0.00 in
05:09 64.8 °F 58.5 °F 30.03 in Calm     80% 0.00 in
05:14 64.8 °F 58.5 °F 30.03 in Calm     80% 0.00 in
05:19 64.9 °F 58.6 °F 30.03 in Calm     80% 0.00 in
05:24 64.9 °F 58.6 °F 30.03 in Calm     80% 0.00 in
05:29 65.1 °F 58.8 °F 30.03 in Calm   3.0 mph 80% 0.00 in
05:34 65.1 °F 58.8 °F 30.03 in Calm     80% 0.00 in
05:39 65.0 °F 58.7 °F 30.03 in Calm     80% 0.00 in
05:44 65.0 °F 58.7 °F 30.03 in Calm   1.0 mph 80% 0.00 in
05:49 65.0 °F 58.7 °F 30.03 in Calm     80% 0.00 in
05:54 64.9 °F 58.6 °F 30.03 in Calm   2.0 mph 80% 0.00 in
05:59 64.9 °F 58.6 °F 30.03 in Calm   2.0 mph 80% 0.00 in
06:04 65.0 °F 58.7 °F 30.03 in SSE 1.0 mph 3.0 mph 80% 0.00 in
06:09 65.1 °F 58.8 °F 30.03 in SSE 1.0 mph 3.0 mph 80% 0.00 in
06:14 65.2 °F 58.9 °F 30.02 in Calm     80% 0.00 in
06:19 65.3 °F 59.0 °F 30.02 in Calm     80% 0.00 in
06:24 65.3 °F 59.0 °F 30.03 in Calm     80% 0.00 in
06:29 65.3 °F 59.0 °F 30.03 in Calm     80% 0.00 in
06:34 65.5 °F 59.2 °F 30.03 in Calm     80% 0.00 in
06:39 65.6 °F 59.3 °F 30.03 in SSE 2.0 mph 3.0 mph 80% 0.00 in
06:44 65.7 °F 59.4 °F 30.03 in Calm   4.0 mph 80% 0.00 in
06:49 65.8 °F 59.5 °F 30.02 in South 2.0 mph 2.0 mph 80% 0.00 in
06:54 65.8 °F 59.5 °F 30.02 in South 1.0 mph 3.0 mph 80% 0.00 in
06:59 65.9 °F 59.6 °F 30.02 in South 1.0 mph 3.0 mph 80% 0.00 in
07:04 66.1 °F 59.7 °F 30.02 in South 1.0 mph 3.0 mph 80% 0.00 in
07:09 66.2 °F 59.8 °F 30.03 in South 1.0 mph 3.0 mph 80% 0.00 in
07:14 66.4 °F 60.0 °F 30.02 in South 1.0 mph 4.0 mph 80% 0.00 in
07:19 66.5 °F 60.1 °F 30.02 in South 1.0 mph 4.0 mph 80% 0.00 in
07:24 66.7 °F 60.3 °F 30.02 in South 1.0 mph 4.0 mph 80% 0.00 in
07:29 66.9 °F 60.2 °F 30.02 in SSW 1.0 mph 6.0 mph 79% 0.00 in
07:34 67.2 °F 60.5 °F 30.02 in Calm   2.0 mph 79% 0.00 in
07:39 67.4 °F 60.7 °F 30.02 in Calm   3.0 mph 79% 0.00 in
07:44 67.6 °F 60.9 °F 30.02 in Calm     79% 0.00 in
07:49 67.7 °F 61.0 °F 30.02 in SSW 2.0 mph 2.0 mph 79% 0.00 in
07:54 67.8 °F 61.0 °F 30.01 in SSW 2.0 mph 3.0 mph 79% 0.00 in
07:59 68.0 °F 60.9 °F 30.01 in Calm   4.0 mph 78% 0.00 in
08:04 68.1 °F 60.6 °F 30.01 in South 1.0 mph 4.0 mph 77% 0.00 in
08:09 68.1 °F 61.0 °F 30.02 in South 1.0 mph 4.0 mph 78% 0.00 in
08:14 68.4 °F 61.3 °F 30.02 in SSW 1.0 mph 4.0 mph 78% 0.00 in
08:19 68.9 °F 61.8 °F 30.02 in SSW 2.0 mph 4.0 mph 78% 0.00 in
08:24 69.7 °F 61.8 °F 30.02 in SSW 2.0 mph 4.0 mph 76% 0.00 in
08:29 70.0 °F 62.1 °F 30.02 in SSW 2.0 mph 4.0 mph 76% 0.00 in
08:34 70.5 °F 62.2 °F 30.02 in SSW 2.0 mph 5.0 mph 75% 0.00 in
08:39 70.8 °F 62.5 °F 30.02 in SSW 2.0 mph 6.0 mph 75% 0.00 in
08:44 70.8 °F 62.5 °F 30.01 in WSW 4.0 mph 5.0 mph 75% 0.00 in
08:49 70.9 °F 62.6 °F 30.01 in WSW 6.0 mph 7.0 mph 75% 0.00 in
08:54 70.9 °F 62.6 °F 30.01 in SW 3.0 mph 7.0 mph 75% 0.00 in
08:59 70.8 °F 62.5 °F 30.01 in South 6.0 mph 7.0 mph 75% 0.00 in
09:04 71.2 °F 62.9 °F 30.01 in SSW 4.0 mph 8.0 mph 75% 0.00 in
09:09 71.7 °F 63.4 °F 30.01 in SW 4.0 mph 8.0 mph 75% 0.00 in
09:14 71.7 °F 63.0 °F 30.01 in SW 4.0 mph 8.0 mph 74% 0.00 in
09:19 71.8 °F 63.4 °F 30.01 in SW 4.0 mph 8.0 mph 75% 0.00 in
09:24 71.9 °F 63.5 °F 30.01 in South 6.0 mph 7.0 mph 75% 0.00 in
09:29 72.0 °F 63.6 °F 30.01 in SW 8.0 mph 11.0 mph 75% 0.00 in
09:34 72.4 °F 63.6 °F 30.01 in WSW 4.0 mph 11.0 mph 74% 0.00 in
09:39 72.8 °F 64.0 °F 30.01 in SW 5.0 mph 13.0 mph 74% 0.00 in
09:44 72.6 °F 63.8 °F 30.01 in SW 5.0 mph 13.0 mph 74% 0.00 in
09:49 72.6 °F 64.2 °F 30.00 in SSW 7.0 mph 9.0 mph 75% 0.00 in
09:54 72.6 °F 63.8 °F 30.00 in SW 5.0 mph 8.0 mph 74% 0.00 in
09:59 73.0 °F 63.8 °F 30.00 in SSW 4.0 mph 8.0 mph 73% 0.00 in
10:04 73.1 °F 63.9 °F 30.00 in SW 3.0 mph 8.0 mph 73% 0.00 in
10:09 72.8 °F 63.6 °F 30.00 in SSW 2.0 mph 8.0 mph 73% 0.00 in
10:14 72.8 °F 63.6 °F 30.00 in SSW 4.0 mph 8.0 mph 73% 0.00 in
10:19 73.2 °F 64.0 °F 30.00 in SW 3.0 mph 7.0 mph 73% 0.00 in
10:24 73.4 °F 63.8 °F 30.00 in SW 4.0 mph 11.0 mph 72% 0.00 in
10:29 73.4 °F 64.2 °F 30.00 in SSW 4.0 mph 11.0 mph 73% 0.00 in
10:34 73.7 °F 64.5 °F 30.00 in WSW 2.0 mph 9.0 mph 73% 0.00 in
10:39 73.7 °F 64.1 °F 30.00 in SW 4.0 mph 8.0 mph 72% 0.00 in
10:44 73.6 °F 64.0 °F 30.00 in SW 4.0 mph 8.0 mph 72% 0.00 in
10:49 73.4 °F 63.8 °F 30.00 in SSW 4.0 mph 9.0 mph 72% 0.00 in
10:54 73.5 °F 64.3 °F 30.00 in SW 6.0 mph 7.0 mph 73% 0.00 in
10:59 73.7 °F 64.5 °F 30.00 in SSW 5.0 mph 5.0 mph 73% 0.00 in
11:04 73.9 °F 64.7 °F 30.00 in SW 2.0 mph 8.0 mph 73% 0.00 in
11:09 73.8 °F 64.2 °F 30.00 in WSW 3.0 mph 6.0 mph 72% 0.00 in
11:14 74.0 °F 64.4 °F 30.00 in SW 4.0 mph 7.0 mph 72% 0.00 in
11:19 74.6 °F 65.0 °F 30.00 in WSW 3.0 mph 7.0 mph 72% 0.00 in
11:24 74.5 °F 64.5 °F 30.00 in WSW 4.0 mph 10.0 mph 71% 0.00 in
11:29 74.5 °F 64.5 °F 30.00 in SW 5.0 mph 11.0 mph 71% 0.00 in
11:34 74.6 °F 64.6 °F 30.00 in SW 5.0 mph 11.0 mph 71% 0.00 in
11:39 75.1 °F 65.1 °F 30.00 in SSW 4.0 mph 8.0 mph 71% 0.00 in
11:44 75.4 °F 64.9 °F 30.00 in SW 4.0 mph 7.0 mph 70% 0.00 in
11:49 75.2 °F 64.7 °F 30.00 in SW 4.0 mph 10.0 mph 70% 0.00 in
11:54 75.2 °F 64.7 °F 30.00 in WSW 5.0 mph 10.0 mph 70% 0.00 in
11:59 75.3 °F 64.8 °F 30.00 in WSW 4.0 mph 9.0 mph 70% 0.00 in
12:04 75.2 °F 64.7 °F 30.00 in SW 3.0 mph 11.0 mph 70% 0.00 in
12:09 75.2 °F 64.7 °F 30.00 in SW 2.0 mph 9.0 mph 70% 0.00 in
12:14 75.1 °F 64.6 °F 30.00 in WSW 5.0 mph 10.0 mph 70% 0.00 in
12:19 75.3 °F 65.6 °F 30.00 in West 3.0 mph 8.0 mph 72% 0.00 in
12:24 75.8 °F 65.3 °F 30.00 in WSW 4.0 mph 8.0 mph 70% 0.00 in
12:29 75.9 °F 65.0 °F 29.99 in WSW 3.0 mph 8.0 mph 69% 0.00 in
12:34 75.4 °F 64.1 °F 29.99 in West 2.0 mph 10.0 mph 68% 0.00 in
12:39 75.7 °F 64.8 °F 30.00 in WSW 6.0 mph 6.0 mph 69% 0.00 in
12:44 75.9 °F 65.0 °F 29.99 in SW 5.0 mph 7.0 mph 69% 0.00 in
12:49 75.6 °F 64.7 °F 29.99 in WSW 3.0 mph 6.0 mph 69% 0.00 in
12:54 75.4 °F 64.5 °F 29.99 in SW 3.0 mph 9.0 mph 69% 0.00 in
12:59 75.5 °F 64.6 °F 29.99 in SW 3.0 mph 9.0 mph 69% 0.00 in
13:04 75.8 °F 65.3 °F 29.99 in WSW 3.0 mph 6.0 mph 70% 0.00 in
13:09 75.5 °F 64.6 °F 29.99 in WSW 3.0 mph 8.0 mph 69% 0.00 in
13:14 75.2 °F 65.1 °F 29.99 in SW 4.0 mph 8.0 mph 71% 0.00 in
13:19 75.1 °F 64.6 °F 29.99 in SW 2.0 mph 8.0 mph 70% 0.00 in
13:24 75.3 °F 65.2 °F 29.98 in WSW 4.0 mph 7.0 mph 71% 0.00 in
13:29 75.2 °F 65.1 °F 29.98 in WSW 3.0 mph 7.0 mph 71% 0.00 in
13:34 75.2 °F 65.1 °F 29.98 in SW 3.0 mph 7.0 mph 71% 0.00 in
13:39 75.3 °F 64.8 °F 29.98 in SSW 3.0 mph 5.0 mph 70% 0.00 in
13:44 75.2 °F 65.1 °F 29.98 in WSW 5.0 mph 8.0 mph 71% 0.00 in
13:49 75.1 °F 65.1 °F 29.98 in SW 3.0 mph 6.0 mph 71% 0.00 in
13:54 75.5 °F 65.4 °F 29.98 in Calm   4.0 mph 71% 0.00 in
13:59 75.4 °F 65.3 °F 29.98 in SW 2.0 mph 7.0 mph 71% 0.00 in
14:04 75.2 °F 65.1 °F 29.97 in SW 3.0 mph 7.0 mph 71% 0.00 in
14:09 75.3 °F 64.8 °F 29.98 in SW 3.0 mph 6.0 mph 70% 0.00 in
14:14 75.2 °F 65.1 °F 29.98 in SW 3.0 mph 8.0 mph 71% 0.00 in
14:19 75.3 °F 65.6 °F 29.97 in SW 2.0 mph 8.0 mph 72% 0.00 in
14:24 75.3 °F 65.2 °F 29.97 in SW 2.0 mph 5.0 mph 71% 0.00 in
14:29 75.3 °F 65.2 °F 29.97 in West 3.0 mph 5.0 mph 71% 0.00 in
14:34 75.3 °F 64.8 °F 29.97 in WSW 3.0 mph 5.0 mph 70% 0.00 in
14:39 75.3 °F 65.2 °F 29.97 in SW 2.0 mph 3.0 mph 71% 0.00 in
14:44 75.3 °F 65.6 °F 29.97 in SW 4.0 mph 4.0 mph 72% 0.00 in
14:49 75.3 °F 65.2 °F 29.96 in SW 3.0 mph 5.0 mph 71% 0.00 in
14:54 75.2 °F 65.1 °F 29.96 in SW 1.0 mph 5.0 mph 71% 0.00 in
14:59 75.2 °F 65.1 °F 29.95 in SW 2.0 mph 3.0 mph 71% 0.00 in
15:04 75.2 °F 65.1 °F 29.95 in SW 1.0 mph 3.0 mph 71% 0.00 in
15:09 75.3 °F 65.2 °F 29.95 in SW 2.0 mph 6.0 mph 71% 0.00 in
15:14 75.1 °F 64.6 °F 29.96 in SW 3.0 mph 10.0 mph 70% 0.00 in
15:19 75.0 °F 65.0 °F 29.96 in SW 4.0 mph 10.0 mph 71% 0.00 in
15:24 75.1 °F 65.1 °F 29.96 in WSW 4.0 mph 9.0 mph 71% 0.00 in
15:29 74.9 °F 64.9 °F 29.95 in SW 4.0 mph 10.0 mph 71% 0.00 in
15:34 74.9 °F 64.9 °F 29.95 in SW 4.0 mph 11.0 mph 71% 0.00 in
15:39 75.0 °F 64.5 °F 29.95 in SW 7.0 mph 12.0 mph 70% 0.00 in
15:44 75.4 °F 64.9 °F 29.95 in SSW 4.0 mph 8.0 mph 70% 0.00 in
15:49 75.5 °F 65.0 °F 29.95 in SSW 2.0 mph 8.0 mph 70% 0.00 in
15:54 75.5 °F 65.0 °F 29.93 in SE 4.0 mph 8.0 mph 70% 0.00 in
15:59 75.9 °F 65.8 °F 29.93 in South 5.0 mph 8.0 mph 71% 0.00 in
16:04 76.4 °F 65.1 °F 29.92 in South 2.0 mph 13.0 mph 68% 0.00 in
16:09 76.4 °F 65.5 °F 29.92 in South 5.0 mph 13.0 mph 69% 0.00 in
16:14 76.7 °F 65.8 °F 29.92 in South 5.0 mph 12.0 mph 69% 0.00 in
16:19 77.1 °F 65.7 °F 29.92 in South 6.0 mph 12.0 mph 68% 0.00 in
16:24 77.2 °F 65.4 °F 29.93 in WSW 4.0 mph 8.0 mph 67% 0.00 in
16:29 77.0 °F 65.2 °F 29.93 in SSW 5.0 mph 10.0 mph 67% 0.00 in
16:34 76.7 °F 64.9 °F 29.93 in WSW 5.0 mph 9.0 mph 67% 0.00 in
16:39 76.4 °F 64.6 °F 29.93 in SW 5.0 mph 9.0 mph 67% 0.00 in
16:44 76.6 °F 65.2 °F 29.93 in SW 4.0 mph 9.0 mph 68% 0.00 in
16:49 76.6 °F 64.8 °F 29.93 in SW 4.0 mph 9.0 mph 67% 0.00 in
16:54 76.8 °F 65.0 °F 29.93 in SSW 4.0 mph 7.0 mph 67% 0.00 in
16:59 76.9 °F 65.1 °F 29.93 in SW 3.0 mph 7.0 mph 67% 0.00 in
17:04 77.0 °F 65.2 °F 29.92 in SW 7.0 mph 7.0 mph 67% 0.00 in
17:09 77.0 °F 64.8 °F 29.92 in SW 7.0 mph 9.0 mph 66% 0.00 in
17:14 76.8 °F 63.7 °F 29.92 in SSW 5.0 mph 11.0 mph 64% 0.00 in
17:19 76.5 °F 64.3 °F 29.92 in SSW 6.0 mph 13.0 mph 66% 0.00 in
17:24 76.4 °F 64.2 °F 29.92 in SW 5.0 mph 13.0 mph 66% 0.00 in
17:29 76.3 °F 64.1 °F 29.92 in South 1.0 mph 10.0 mph 66% 0.00 in
17:34 76.0 °F 64.2 °F 29.92 in SSE 3.0 mph 9.0 mph 67% 0.00 in
17:39 76.0 °F 64.2 °F 29.93 in West 3.0 mph 8.0 mph 67% 0.00 in
17:44 75.9 °F 64.6 °F 29.93 in SW 4.0 mph 10.0 mph 68% 0.00 in
17:49 75.7 °F 65.2 °F 29.92 in SW 5.0 mph 12.0 mph 70% 0.00 in
17:54 75.5 °F 64.2 °F 29.93 in SW 5.0 mph 12.0 mph 68% 0.00 in
17:59 75.3 °F 63.2 °F 29.93 in SW 4.0 mph 7.0 mph 66% 0.00 in
18:04 75.2 °F 62.2 °F 29.93 in WSW 3.0 mph 10.0 mph 64% 0.00 in
18:09 75.0 °F 60.6 °F 29.94 in West 3.0 mph 10.0 mph 61% 0.00 in
18:14 74.9 °F 60.5 °F 29.94 in West 5.0 mph 8.0 mph 61% 0.00 in
18:19 74.8 °F 60.9 °F 29.94 in WSW 5.0 mph 16.0 mph 62% 0.00 in
18:24 73.8 °F 61.7 °F 29.95 in WSW 8.0 mph 22.0 mph 66% 0.00 in
18:29 71.1 °F 60.8 °F 29.95 in West 6.0 mph 15.0 mph 70% 0.02 in
18:39 67.7 °F 61.0 °F 29.93 in SSW 4.0 mph 12.0 mph 79% 0.05 in
18:44 67.6 °F 61.2 °F 29.92 in SSW 2.0 mph 9.0 mph 80% 0.05 in
18:49 67.7 °F 61.7 °F 29.92 in South 4.0 mph 10.0 mph 81% 0.06 in
18:54 67.7 °F 61.7 °F 29.92 in South 4.0 mph 10.0 mph 81% 0.06 in
18:59 67.6 °F 61.9 °F 29.92 in South 3.0 mph 9.0 mph 82% 0.06 in
19:04 67.3 °F 62.0 °F 29.91 in South 2.0 mph 6.0 mph 83% 0.06 in
19:09 67.3 °F 62.0 °F 29.90 in SE 4.0 mph 5.0 mph 83% 0.06 in
19:14 67.3 °F 62.0 °F 29.90 in Calm   4.0 mph 83% 0.06 in
19:19 67.4 °F 62.1 °F 29.90 in South 1.0 mph 4.0 mph 83% 0.06 in
19:24 67.5 °F 61.8 °F 29.90 in SSE 1.0 mph 5.0 mph 82% 0.06 in
19:29 67.6 °F 61.9 °F 29.90 in Calm   5.0 mph 82% 0.04 in
19:34 67.7 °F 62.0 °F 29.90 in Calm   6.0 mph 82% 0.01 in
19:39 67.7 °F 62.0 °F 29.89 in South 1.0 mph 3.0 mph 82% 0.01 in
19:44 67.7 °F 62.0 °F 29.90 in South 1.0 mph 4.0 mph 82% 0.01 in
19:49 67.5 °F 61.8 °F 29.90 in Calm   5.0 mph 82% 0.00 in
19:54 67.4 °F 61.7 °F 29.90 in South 2.0 mph 5.0 mph 82% 0.00 in
19:59 67.5 °F 61.8 °F 29.90 in South 1.0 mph 5.0 mph 82% 0.00 in
20:04 67.4 °F 61.7 °F 29.90 in Calm   5.0 mph 82% 0.00 in
20:09 67.4 °F 61.7 °F 29.90 in Calm   3.0 mph 82% 0.00 in
20:14 67.5 °F 61.8 °F 29.90 in South 1.0 mph 3.0 mph 82% 0.00 in
20:19 67.5 °F 61.8 °F 29.90 in South 1.0 mph 3.0 mph 82% 0.00 in
20:24 67.4 °F 61.7 °F 29.89 in Calm   3.0 mph 82% 0.00 in
20:29 67.5 °F 61.5 °F 29.89 in Calm   3.0 mph 81% 0.00 in
20:34 67.4 °F 61.4 °F 29.89 in Calm   4.0 mph 81% 0.00 in
20:39 67.2 °F 61.2 °F 29.90 in Calm   3.0 mph 81% 0.00 in
20:44 67.0 °F 61.0 °F 29.90 in SSW 1.0 mph 4.0 mph 81% 0.00 in
20:49 66.9 °F 60.9 °F 29.90 in Calm     81% 0.00 in
20:54 66.6 °F 60.9 °F 29.90 in Calm     82% 0.00 in
20:59 66.5 °F 60.8 °F 29.90 in Calm     82% 0.00 in
21:04 66.4 °F 61.1 °F 29.90 in Calm     83% 0.00 in
21:09 66.1 °F 60.8 °F 29.90 in Calm     83% 0.00 in
21:14 66.0 °F 61.0 °F 29.90 in Calm     84% 0.00 in
21:19 65.9 °F 60.9 °F 29.90 in Calm     84% 0.00 in
21:24 66.1 °F 61.1 °F 29.90 in Calm     84% 0.00 in
21:29 66.3 °F 61.3 °F 29.89 in Calm     84% 0.00 in
21:34 66.4 °F 61.1 °F 29.90 in Calm   3.0 mph 83% 0.00 in
21:39 66.3 °F 61.0 °F 29.89 in Calm   2.0 mph 83% 0.00 in
21:44 66.0 °F 61.0 °F 29.89 in Calm   2.0 mph 84% 0.00 in
21:49 65.8 °F 60.8 °F 29.89 in Calm   1.0 mph 84% 0.00 in
21:54 65.6 °F 60.6 °F 29.89 in Calm     84% 0.00 in
21:59 65.5 °F 60.5 °F 29.89 in Calm     84% 0.00 in
22:04 65.3 °F 60.7 °F 29.89 in Calm     85% 0.00 in
22:09 65.1 °F 60.5 °F 29.89 in Calm     85% 0.00 in
22:14 64.8 °F 60.2 °F 29.89 in Calm     85% 0.00 in
22:19 64.5 °F 60.2 °F 29.89 in Calm     86% 0.00 in
22:24 64.2 °F 60.2 °F 29.89 in Calm     87% 0.00 in
22:29 64.1 °F 60.5 °F 29.89 in Calm     88% 0.00 in
22:34 64.3 °F 60.7 °F 29.89 in Calm     88% 0.00 in
22:39 64.3 °F 60.3 °F 29.89 in Calm     87% 0.00 in
22:44 64.3 °F 60.7 °F 29.89 in Calm     88% 0.00 in
22:49 64.2 °F 60.6 °F 29.89 in Calm     88% 0.00 in
22:54 64.3 °F 60.7 °F 29.89 in Calm     88% 0.00 in
22:59 64.5 °F 60.9 °F 29.89 in Calm     88% 0.00 in
23:04 64.7 °F 60.7 °F 29.88 in Calm     87% 0.00 in
23:09 64.8 °F 60.8 °F 29.88 in Calm     87% 0.00 in
23:14 65.0 °F 61.0 °F 29.88 in Calm   2.0 mph 87% 0.00 in
23:19 65.2 °F 60.9 °F 29.88 in Calm   2.0 mph 86% 0.00 in
23:24 65.2 °F 60.9 °F 29.88 in Calm   4.0 mph 86% 0.00 in
23:29 65.3 °F 61.0 °F 29.88 in Calm   4.0 mph 86% 0.00 in
23:34 65.3 °F 61.0 °F 29.88 in Calm     86% 0.00 in
23:39 65.3 °F 60.7 °F 29.88 in Calm     85% 0.00 in
23:44 65.4 °F 60.8 °F 29.88 in South 2.0 mph 4.0 mph 85% 0.00 in
23:49 65.6 °F 61.0 °F 29.87 in SSW 2.0 mph 4.0 mph 85% 0.00 in
23:54 65.8 °F 60.8 °F 29.87 in South 2.0 mph 5.0 mph 84% 0.00 in
23:59 65.9 °F 60.9 °F 29.86 in SW 2.0 mph 5.0 mph 84% 0.00 in
Buffalo, New York, USA
Compliments of Weather Underground - 2.5 mb